Aviation Digital Data Service (ADDS)

Output produced by METARs form (0242 UTC 24 July 2017)
found at http://www.aviationweather.gov/adds/metars/
 
GFLL 232100Z 21006KT 9999 BKN012 FEW027CB 28/24 Q1014 RMK CB-NE
TAF GFLL 232200Z 2400/2506 29008KT 9999 BKN013 FEW027CB 
     TEMPO 2404/2408 06006KT 8000 RA BKN011 
     TEMPO 2413/2417 30005KT 9999 SCT014 FEW027CB 
     TEMPO 2422/2502 27006KT FEW015 FEW140